Time;durP1;ratioP1;P1;durP2;ratioP2;P2;SDS_P1;SDS_P2;PMS_P1;PMS_P2;Temp;Humidity;BMP_temperature;BMP_pressure;BME280_temperature;BME280_humidity;BME280_pressure;Samples;Min_cycle;Max_cycle;Signal;HPM_P1;HPM_P2
2021/04/11 00:01:16;;;;;;;15.43;14.60;;;23.70;83.40;;;;;;6075246;23;20440;-45
2021/04/11 00:03:43;;;;;;;16.20;15.30;;;23.70;83.40;;;;;;6077794;23;20444;-43
2021/04/11 00:06:10;;;;;;;15.50;14.60;;;23.70;83.40;;;;;;6076133;23;20800;-44
2021/04/11 00:08:36;;;;;;;16.27;15.47;;;23.80;83.50;;;;;;6076523;23;20512;-44
2021/04/11 00:11:04;;;;;;;16.80;15.60;;;23.70;83.40;;;;;;6075781;23;20462;-45
2021/04/11 00:13:34;;;;;;;16.70;15.70;;;23.70;83.40;;;;;;6076143;23;20685;-44
2021/04/11 00:16:01;;;;;;;17.23;16.00;;;23.70;83.40;;;;;;6075604;23;20547;-45
2021/04/11 00:18:28;;;;;;;16.37;15.47;;;23.70;83.40;;;;;;6075020;23;20443;-45
2021/04/11 00:20:55;;;;;;;16.43;15.27;;;23.70;83.40;;;;;;6074071;23;20461;-45
2021/04/11 00:23:24;;;;;;;17.73;16.23;;;23.70;83.40;;;;;;6075141;23;20746;-45
2021/04/11 00:25:51;;;;;;;15.83;14.77;;;23.70;83.40;;;;;;6075484;23;20796;-45
2021/04/11 00:28:18;;;;;;;16.60;15.60;;;23.70;83.40;;;;;;6075016;23;20543;-45
2021/04/11 00:30:46;;;;;;;15.80;14.80;;;23.70;83.40;;;;;;6075468;23;20672;-44
2021/04/11 00:33:24;;;;;;;16.37;15.00;;;23.70;83.40;;;;;;6075480;23;20446;-45
2021/04/11 00:35:56;;;;;;;17.57;16.20;;;23.70;83.50;;;;;;6076984;23;20451;-45
2021/04/11 00:38:23;;;;;;;16.20;15.00;;;23.70;83.40;;;;;;6076273;23;20651;-45
2021/04/11 00:40:49;;;;;;;17.47;16.27;;;23.70;83.40;;;;;;6075046;23;20440;-44
2021/04/11 00:43:19;;;;;;;16.57;15.40;;;23.70;83.50;;;;;;6075977;23;20979;-45
2021/04/11 00:45:54;;;;;;;16.87;15.67;;;23.70;83.40;;;;;;6074163;23;20462;-44
2021/04/11 00:48:25;;;;;;;15.90;15.00;;;23.70;83.40;;;;;;6072869;23;20745;-44
2021/04/11 00:50:54;;;;;;;16.27;15.30;;;23.70;83.50;;;;;;6073456;23;20791;-44
2021/04/11 00:53:21;;;;;;;16.47;15.37;;;23.60;83.40;;;;;;6074786;23;20808;-44
2021/04/11 00:55:49;;;;;;;16.93;15.73;;;23.60;83.40;;;;;;6073792;23;20875;-44
2021/04/11 00:58:16;;;;;;;16.33;15.40;;;23.60;83.40;;;;;;6074260;23;20440;-44
2021/04/11 01:00:43;;;;;;;15.10;14.30;;;23.60;83.40;;;;;;6073559;23;20460;-45
2021/04/11 01:03:11;;;;;;;15.10;14.40;;;23.60;83.50;;;;;;6075872;23;20446;-44
2021/04/11 01:05:41;;;;;;;16.07;15.07;;;23.60;83.50;;;;;;6075253;23;20538;-44
2021/04/11 01:08:14;;;;;;;14.73;14.03;;;23.60;83.50;;;;;;6074338;23;20784;-44
2021/04/11 01:10:47;;;;;;;16.43;15.20;;;23.60;83.50;;;;;;6073754;23;20724;-44
2021/04/11 01:13:16;;;;;;;16.23;15.10;;;23.60;83.60;;;;;;6074290;23;20757;-45
2021/04/11 01:15:43;;;;;;;15.77;14.80;;;23.60;83.50;;;;;;6074048;23;20460;-45
2021/04/11 01:18:10;;;;;;;16.60;15.50;;;23.60;83.50;;;;;;6075794;23;20452;-45
2021/04/11 01:20:38;;;;;;;16.83;15.83;;;23.60;83.50;;;;;;6076695;23;20444;-44
2021/04/11 01:23:16;;;;;;;16.60;15.40;;;23.60;83.60;;;;;;6075476;23;20455;-44
2021/04/11 01:25:46;;;;;;;15.23;14.30;;;23.60;83.60;;;;;;6073150;23;20455;-44
2021/04/11 01:28:19;;;;;;;15.53;14.73;;;23.60;83.60;;;;;;6076692;23;20448;-45
2021/04/11 01:30:48;;;;;;;15.57;14.57;;;23.60;83.70;;;;;;6075124;23;20546;-46
2021/04/11 01:33:17;;;;;;;16.33;15.43;;;23.50;83.60;;;;;;6074959;23;20461;-44
2021/04/11 01:35:46;;;;;;;16.87;15.47;;;23.50;83.60;;;;;;6075514;23;20504;-44
2021/04/11 01:38:14;;;;;;;16.37;15.40;;;23.50;83.60;;;;;;6075289;23;20876;-45
2021/04/11 01:40:46;;;;;;;16.63;15.63;;;23.50;83.60;;;;;;6073939;23;20464;-45
2021/04/11 01:43:15;;;;;;;15.70;14.77;;;23.50;83.60;;;;;;6076664;23;20716;-45
2021/04/11 01:45:44;;;;;;;16.33;15.27;;;23.50;83.60;;;;;;6073776;23;20500;-44
2021/04/11 01:48:12;;;;;;;15.57;14.77;;;23.50;83.60;;;;;;6072937;23;20811;-45
2021/04/11 01:50:40;;;;;;;16.60;15.70;;;23.50;83.60;;;;;;6074379;23;20457;-45
2021/04/11 01:53:10;;;;;;;15.50;14.60;;;23.50;83.60;;;;;;6074358;23;20455;-44
2021/04/11 01:55:37;;;;;;;16.13;15.23;;;23.50;83.70;;;;;;6074327;23;20447;-44
2021/04/11 01:58:05;;;;;;;16.53;15.53;;;23.50;83.70;;;;;;6074799;23;20574;-44
2021/04/11 02:00:36;;;;;;;16.27;15.37;;;23.50;83.70;;;;;;6075822;23;20443;-44
2021/04/11 02:03:07;;;;;;;16.50;15.50;;;23.50;83.80;;;;;;6073812;23;20794;-44
2021/04/11 02:05:38;;;;;;;16.20;15.40;;;23.50;83.80;;;;;;6073430;23;20452;-45
2021/04/11 02:08:08;;;;;;;16.40;15.60;;;23.50;83.80;;;;;;6076206;23;20538;-45
2021/04/11 02:10:46;;;;;;;16.43;15.23;;;23.50;84.50;;;;;;6074149;23;20459;-45
2021/04/11 02:13:22;;;;;;;16.07;15.17;;;23.50;83.80;;;;;;6074669;23;20543;-44
2021/04/11 02:15:53;;;;;;;16.37;15.43;;;23.50;83.90;;;;;;6075603;23;20459;-45
2021/04/11 02:18:22;;;;;;;16.13;15.17;;;23.50;83.90;;;;;;6075436;23;20491;-44
2021/04/11 02:20:52;;;;;;;16.20;15.40;;;23.50;83.90;;;;;;6075933;23;20469;-44
2021/04/11 02:23:21;;;;;;;17.07;15.97;;;23.40;83.80;;;;;;6075227;23;20799;-45
2021/04/11 02:25:51;;;;;;;16.00;15.20;;;23.40;83.80;;;;;;6075959;23;20457;-46
2021/04/11 02:28:22;;;;;;;16.83;15.77;;;23.40;83.80;;;;;;6075854;23;20451;-45
2021/04/11 02:30:54;;;;;;;16.80;15.90;;;23.40;83.90;;;;;;6074911;23;20460;-45
2021/04/11 02:33:22;;;;;;;16.10;15.20;;;23.40;84.50;;;;;;6074281;23;20453;-44
2021/04/11 02:35:51;;;;;;;16.30;15.40;;;23.40;83.80;;;;;;6073874;23;20457;-43
2021/04/11 02:38:20;;;;;;;16.27;15.13;;;23.40;83.80;;;;;;6074647;23;20446;-45
2021/04/11 02:40:49;;;;;;;16.27;15.40;;;23.40;83.90;;;;;;6073316;23;20444;-47
2021/04/11 02:43:25;;;;;;;16.83;15.77;;;23.40;83.90;;;;;;6075751;23;20470;-44
2021/04/11 02:45:53;;;;;;;15.63;14.83;;;23.40;83.90;;;;;;6075115;23;20443;-44
2021/04/11 02:48:20;;;;;;;15.60;14.80;;;23.40;83.90;;;;;;6076607;23;20813;-44
2021/04/11 02:51:05;;;;;;;16.13;15.23;;;23.40;83.90;;;;;;6072532;23;21079;-45
2021/04/11 02:53:41;;;;;;;15.93;15.23;;;23.40;83.90;;;;;;6076008;23;20453;-45
2021/04/11 02:56:16;;;;;;;16.27;15.30;;;23.40;84.00;;;;;;6077330;23;20741;-44
2021/04/11 02:58:44;;;;;;;16.03;15.13;;;23.40;84.00;;;;;;6074628;23;20549;-45
2021/04/11 03:01:15;;;;;;;15.97;15.07;;;23.30;83.90;;;;;;6075357;23;20440;-44
2021/04/11 03:03:43;;;;;;;16.57;15.37;;;23.30;84.00;;;;;;6075537;23;20468;-44
2021/04/11 03:06:15;;;;;;;15.63;14.93;;;23.30;84.00;;;;;;6049901;23;20448;-47
2021/04/11 03:08:48;;;;;;;15.27;14.47;;;23.30;84.00;;;;;;6077469;23;20447;-44
2021/04/11 03:11:24;;;;;;;16.33;15.37;;;23.30;84.00;;;;;;6075757;23;20671;-44
2021/04/11 03:13:51;;;;;;;15.70;15.00;;;23.30;84.00;;;;;;6075978;23;20456;-45
2021/04/11 03:16:21;;;;;;;16.10;15.30;;;23.30;84.00;;;;;;6075597;23;20489;-45
2021/04/11 03:18:49;;;;;;;16.63;15.63;;;23.30;84.00;;;;;;6077512;23;20618;-45
2021/04/11 03:21:18;;;;;;;17.03;16.07;;;23.30;84.00;;;;;;6073458;23;20456;-44
2021/04/11 03:23:45;;;;;;;15.87;15.07;;;23.30;84.10;;;;;;6075545;23;20457;-47
2021/04/11 03:26:25;;;;;;;16.13;15.13;;;23.30;84.10;;;;;;6075339;23;20450;-44
2021/04/11 03:29:00;;;;;;;16.20;15.43;;;23.30;84.10;;;;;;6074348;23;20494;-44
2021/04/11 03:31:31;;;;;;;15.43;14.73;;;23.30;84.10;;;;;;6074663;23;20546;-45
2021/04/11 03:34:01;;;;;;;16.83;15.93;;;23.30;84.10;;;;;;6076340;23;20446;-45
2021/04/11 03:36:32;;;;;;;15.80;14.80;;;23.30;84.10;;;;;;6078955;23;20711;-44
2021/04/11 03:39:00;;;;;;;15.60;14.80;;;23.30;84.10;;;;;;6074174;23;20559;-45
2021/04/11 03:41:29;;;;;;;15.90;15.00;;;23.40;84.10;;;;;;6076056;23;20453;-45
2021/04/11 03:44:04;;;;;;;15.23;14.43;;;23.40;84.00;;;;;;6076375;23;20567;-44
2021/04/11 03:46:47;;;;;;;15.93;15.10;;;23.40;84.00;;;;;;6075712;23;20541;-45
2021/04/11 03:49:22;;;;;;;17.33;16.07;;;23.40;83.90;;;;;;6075434;23;20459;-45
2021/04/11 03:51:54;;;;;;;15.57;14.77;;;23.40;83.90;;;;;;6075330;23;20455;-44
2021/04/11 03:54:24;;;;;;;15.50;14.80;;;23.50;83.90;;;;;;6074345;23;20500;-43
2021/04/11 03:56:55;;;;;;;15.27;14.57;;;23.50;83.90;;;;;;6073964;23;20454;-44
2021/04/11 03:59:28;;;;;;;16.13;15.23;;;23.50;83.90;;;;;;6076758;23;20481;-44
2021/04/11 04:01:59;;;;;;;16.17;15.17;;;23.50;83.80;;;;;;6074093;23;20500;-45
2021/04/11 04:04:33;;;;;;;15.37;14.63;;;23.50;83.70;;;;;;6075712;23;20463;-44
2021/04/11 04:07:14;;;;;;;15.23;14.43;;;23.60;84.50;;;;;;6074389;23;20452;-44
2021/04/11 04:09:53;;;;;;;15.87;15.00;;;23.50;83.70;;;;;;6073795;23;20433;-45
2021/04/11 04:12:29;;;;;;;15.80;15.10;;;23.60;83.80;;;;;;6074836;23;20444;-45
2021/04/11 04:15:08;;;;;;;15.90;15.13;;;23.60;83.80;;;;;;6051375;23;20452;-44
2021/04/11 04:17:42;;;;;;;15.60;14.90;;;23.60;83.80;;;;;;6076409;23;20457;-46
2021/04/11 04:20:13;;;;;;;15.00;14.30;;;23.60;83.70;;;;;;6050198;23;20459;-44
2021/04/11 04:23:05;;;;;;;16.00;15.00;;;23.60;83.70;;;;;;6075676;23;20529;-44
2021/04/11 04:25:49;;;;;;;16.33;15.50;;;23.60;83.50;;;;;;6075399;23;20508;-44
2021/04/11 04:28:40;;;;;;;15.67;15.00;;;23.70;83.60;;;;;;6073911;23;20463;-45
2021/04/11 04:31:15;;;;;;;15.60;14.80;;;23.70;83.30;;;;;;6075224;23;20476;-44
2021/04/11 04:33:56;;;;;;;16.43;15.67;;;23.80;83.30;;;;;;6074460;23;20444;-44
2021/04/11 04:36:36;;;;;;;16.00;15.20;;;23.80;83.20;;;;;;6075349;23;20443;-44
2021/04/11 04:39:32;;;;;;;15.60;14.90;;;23.80;83.30;;;;;;6073253;23;20448;-44
2021/04/11 04:42:15;;;;;;;16.50;15.70;;;23.80;83.10;;;;;;6071745;23;20469;-45
2021/04/11 04:44:54;;;;;;;16.00;15.30;;;23.90;83.10;;;;;;6076492;23;21050;-44
2021/04/11 04:47:36;;;;;;;16.10;15.03;;;23.90;83.10;;;;;;6074155;23;20469;-45
2021/04/11 04:50:16;;;;;;;15.80;15.10;;;23.90;83.10;;;;;;6075492;23;20501;-44
2021/04/11 04:53:02;;;;;;;16.07;15.17;;;23.90;83.00;;;;;;6074151;23;20721;-44
2021/04/11 04:55:30;;;;;;;16.47;15.57;;;23.90;82.90;;;;;;6076848;23;20444;-44
2021/04/11 04:58:01;;;;;;;16.10;15.40;;;24.00;82.90;;;;;;6074795;23;20442;-44
2021/04/11 05:00:34;;;;;;;15.90;15.20;;;24.00;82.80;;;;;;6073018;23;20509;-45
2021/04/11 05:03:11;;;;;;;16.80;15.90;;;24.00;82.70;;;;;;6075753;23;20442;-44
2021/04/11 05:05:45;;;;;;;15.77;14.90;;;24.00;82.70;;;;;;6073485;23;20442;-44
2021/04/11 05:08:17;;;;;;;15.83;15.07;;;24.00;82.70;;;;;;6074528;23;20449;-45
2021/04/11 05:10:49;;;;;;;15.20;14.50;;;24.10;82.80;;;;;;6071927;23;21015;-45
2021/04/11 05:13:25;;;;;;;15.50;14.80;;;24.10;82.70;;;;;;6074610;23;20465;-45
2021/04/11 05:16:04;;;;;;;15.57;14.87;;;24.10;82.70;;;;;;6075376;23;20453;-45
2021/04/11 05:18:35;;;;;;;15.77;14.97;;;24.00;82.60;;;;;;6072031;23;20448;-45
2021/04/11 05:21:21;;;;;;;15.37;14.73;;;24.10;82.70;;;;;;6072607;23;20470;-44
2021/04/11 05:23:53;;;;;;;15.77;14.97;;;24.10;82.70;;;;;;6072825;23;20454;-45
2021/04/11 05:26:26;;;;;;;14.87;14.27;;;24.10;82.60;;;;;;6074326;23;20444;-44
2021/04/11 05:29:03;;;;;;;15.90;15.00;;;24.10;82.60;;;;;;6071146;23;20492;-45
2021/04/11 05:31:34;;;;;;;15.20;14.50;;;24.10;82.60;;;;;;6074392;23;20448;-44
2021/04/11 05:34:04;;;;;;;15.80;14.70;;;24.10;82.50;;;;;;6074406;23;20542;-45
2021/04/11 05:36:43;;;;;;;15.10;14.50;;;24.10;82.40;;;;;;6076604;23;20471;-45
2021/04/11 05:39:21;;;;;;;15.30;14.60;;;24.10;82.40;;;;;;6074026;23;20841;-44
2021/04/11 05:41:55;;;;;;;15.87;15.17;;;24.20;82.50;;;;;;6074153;23;20791;-44
2021/04/11 05:44:30;;;;;;;15.50;14.80;;;24.20;82.40;;;;;;6075377;23;20470;-44
2021/04/11 05:47:06;;;;;;;15.53;14.83;;;24.20;82.40;;;;;;6074667;23;20712;-45
2021/04/11 05:49:39;;;;;;;15.17;14.57;;;24.20;82.40;;;;;;6072700;23;20775;-45
2021/04/11 05:52:11;;;;;;;15.13;14.37;;;24.20;82.50;;;;;;6072502;23;20460;-46
2021/04/11 05:54:41;;;;;;;16.00;15.30;;;24.20;82.40;;;;;;6068864;23;20680;-44
2021/04/11 05:57:13;;;;;;;15.97;15.27;;;24.20;82.40;;;;;;6072887;23;20560;-45
2021/04/11 05:59:47;;;;;;;16.07;15.37;;;24.20;82.40;;;;;;6072230;23;20733;-44
2021/04/11 06:02:19;;;;;;;15.03;14.23;;;24.20;82.30;;;;;;6071164;23;20814;-45
2021/04/11 06:04:50;;;;;;;15.03;14.27;;;24.20;82.20;;;;;;6070387;23;20470;-46
2021/04/11 06:07:23;;;;;;;14.87;14.17;;;24.20;82.20;;;;;;6070885;23;20461;-47
2021/04/11 06:09:57;;;;;;;14.70;14.00;;;24.20;82.20;;;;;;6074579;23;20652;-44
2021/04/11 06:12:30;;;;;;;15.23;14.47;;;24.30;82.30;;;;;;6071551;23;20460;-44
2021/04/11 06:15:01;;;;;;;15.10;14.30;;;24.20;82.10;;;;;;6072169;23;20451;-45
2021/04/11 06:17:29;;;;;;;14.77;14.17;;;24.30;82.20;;;;;;6075198;23;20457;-44
2021/04/11 06:19:56;;;;;;;15.00;14.33;;;24.30;82.10;;;;;;6073918;23;20454;-45
2021/04/11 06:22:37;;;;;;;15.03;14.23;;;24.30;82.10;;;;;;6073010;23;20473;-45
2021/04/11 06:25:09;;;;;;;15.40;14.67;;;24.30;82.90;;;;;;6074749;23;20552;-45
2021/04/11 06:27:43;;;;;;;14.93;14.10;;;24.40;82.20;;;;;;6073861;23;20454;-45
2021/04/11 06:30:15;;;;;;;15.60;14.70;;;24.40;82.20;;;;;;6074493;23;20442;-44
2021/04/11 06:32:47;;;;;;;14.40;13.80;;;24.40;82.10;;;;;;6073669;23;20815;-45
2021/04/11 06:35:20;;;;;;;14.43;13.83;;;24.40;82.10;;;;;;6071538;23;20457;-45
2021/04/11 06:37:51;;;;;;;14.53;13.93;;;24.40;82.00;;;;;;6071334;23;20492;-45
2021/04/11 06:40:42;;;;;;;14.70;14.07;;;24.40;82.00;;;;;;6072460;23;20835;-46
2021/04/11 06:43:27;;;;;;;14.47;13.87;;;24.40;82.00;;;;;;6075947;23;20448;-46
2021/04/11 06:46:00;;;;;;;14.50;13.80;;;24.40;81.90;;;;;;6074194;23;20472;-45
2021/04/11 06:48:48;;;;;;;14.90;13.93;;;24.50;81.90;;;;;;6075381;23;20456;-45
2021/04/11 06:51:31;;;;;;;14.17;13.47;;;24.60;81.80;;;;;;6074950;23;20461;-45
2021/04/11 06:54:56;;;;;;;15.00;14.30;;;24.60;81.60;;;;;;6075876;23;20444;-46
2021/04/11 06:57:29;;;;;;;14.97;14.27;;;24.70;81.70;;;;;;6074158;23;20477;-45
2021/04/11 07:00:08;;;;;;;15.13;14.40;;;24.70;81.40;;;;;;6076579;23;20452;-45
2021/04/11 07:03:12;;;;;;;14.73;14.13;;;24.70;81.50;;;;;;6075119;23;20528;-45
2021/04/11 07:06:00;;;;;;;14.60;14.00;;;24.60;81.60;;;;;;6063860;23;20744;-45
2021/04/11 07:09:03;;;;;;;15.20;14.40;;;24.60;81.70;;;;;;6070206;23;20451;-45
2021/04/11 07:12:06;;;;;;;13.77;13.27;;;24.60;81.80;;;;;;6070016;23;20449;-45
2021/04/11 07:14:56;;;;;;;15.27;14.57;;;24.60;81.80;;;;;;6046175;23;20477;-45
2021/04/11 07:17:56;;;;;;;14.33;13.73;;;24.60;81.90;;;;;;6073656;23;20441;-45
2021/04/11 07:20:54;;;;;;;14.80;13.80;;;24.50;81.80;;;;;;6074287;23;20457;-45
2021/04/11 07:23:51;;;;;;;14.40;13.70;;;24.50;81.80;;;;;;6068376;23;20560;-46
2021/04/11 07:26:35;;;;;;;14.30;13.70;;;24.50;81.80;;;;;;6073157;23;20456;-46
2021/04/11 07:29:18;;;;;;;14.90;14.10;;;24.50;82.00;;;;;;6075445;23;20452;-46
2021/04/11 07:32:00;;;;;;;14.20;13.50;;;24.50;82.00;;;;;;6072629;23;20552;-46
2021/04/11 07:34:58;;;;;;;15.13;14.30;;;24.50;82.10;;;;;;6072306;23;20460;-44
2021/04/11 07:38:21;;;;;;;16.23;15.30;;;24.40;82.20;;;;;;6071392;23;20457;-45
2021/04/11 07:41:05;;;;;;;15.97;14.80;;;24.40;82.30;;;;;;6071248;23;21165;-46
2021/04/11 07:43:43;;;;;;;15.80;14.80;;;24.40;82.40;;;;;;6074598;23;20467;-45
2021/04/11 07:46:34;;;;;;;15.60;14.37;;;24.50;82.60;;;;;;6073295;23;20447;-45
2021/04/11 07:49:34;;;;;;;16.00;14.87;;;24.40;82.50;;;;;;6073297;23;20446;-45
2021/04/11 07:52:14;;;;;;;15.60;14.70;;;24.50;82.70;;;;;;6071837;23;20458;-45
2021/04/11 07:55:00;;;;;;;15.57;14.30;;;24.50;82.60;;;;;;6072279;23;20446;-44
2021/04/11 07:57:52;;;;;;;16.47;15.57;;;24.40;82.70;;;;;;6072139;23;20501;-45
2021/04/11 08:00:41;;;;;;;16.67;15.77;;;24.40;82.70;;;;;;6073009;23;20450;-45
2021/04/11 08:03:42;;;;;;;15.93;14.83;;;24.40;82.70;;;;;;6063508;23;20496;-44
2021/04/11 08:06:45;;;;;;;16.20;14.70;;;24.40;82.80;;;;;;6069593;23;20865;-44
2021/04/11 08:09:30;;;;;;;17.03;15.50;;;24.40;82.90;;;;;;6074002;23;20476;-45
2021/04/11 08:12:30;;;;;;;15.83;14.63;;;24.40;83.00;;;;;;6072538;23;20447;-44
2021/04/11 08:15:10;;;;;;;16.57;15.40;;;24.40;83.20;;;;;;6074075;23;20446;-44
2021/04/11 08:17:59;;;;;;;16.43;15.13;;;24.40;83.30;;;;;;6072982;23;20471;-44
2021/04/11 08:20:44;;;;;;;16.47;15.13;;;24.40;83.40;;;;;;6071704;23;20453;-45
2021/04/11 08:23:47;;;;;;;16.60;15.23;;;24.40;83.40;;;;;;6071904;23;20987;-45
2021/04/11 08:26:47;;;;;;;16.63;15.43;;;24.40;83.50;;;;;;6034276;23;20506;-45
2021/04/11 08:29:29;;;;;;;16.63;14.97;;;24.30;83.60;;;;;;6068155;23;20454;-46
2021/04/11 08:32:27;;;;;;;20.97;15.70;;;24.30;83.60;;;;;;6070742;23;20460;-45
2021/04/11 08:35:38;;;;;;;15.87;14.67;;;24.40;84.00;;;;;;6051332;23;20450;-46
2021/04/11 08:38:43;;;;;;;15.97;14.70;;;24.40;84.30;;;;;;6072733;23;20448;-45
2021/04/11 08:41:32;;;;;;;17.43;15.80;;;24.40;84.20;;;;;;6072207;23;20450;-45
2021/04/11 08:44:11;;;;;;;17.30;15.70;;;24.40;84.20;;;;;;6070014;23;20599;-44
2021/04/11 08:46:55;;;;;;;16.60;15.10;;;24.30;84.20;;;;;;6071608;23;20520;-45
2021/04/11 08:49:24;;;;;;;17.27;15.50;;;24.30;84.20;;;;;;6072540;23;20441;-45
2021/04/11 08:52:02;;;;;;;16.40;15.13;;;24.40;84.40;;;;;;6071405;23;20467;-44
2021/04/11 08:54:47;;;;;;;17.00;15.60;;;24.30;84.40;;;;;;6072745;23;20448;-45
2021/04/11 08:57:25;;;;;;;17.50;15.60;;;24.30;84.40;;;;;;6073659;23;20436;-45
2021/04/11 08:59:59;;;;;;;16.53;15.03;;;24.30;84.40;;;;;;6072860;23;20836;-45
2021/04/11 09:02:59;;;;;;;17.67;15.93;;;24.30;84.50;;;;;;6073950;23;20449;-45
2021/04/11 09:05:36;;;;;;;16.97;15.63;;;24.30;84.70;;;;;;6071465;23;20454;-44
2021/04/11 09:08:20;;;;;;;16.10;14.80;;;24.20;84.60;;;;;;6071070;23;20444;-45
2021/04/11 09:11:21;;;;;;;16.60;15.10;;;24.30;84.80;;;;;;6071749;23;20460;-44
2021/04/11 09:13:59;;;;;;;17.97;16.13;;;24.20;84.90;;;;;;6071041;23;20662;-45
2021/04/11 09:16:39;;;;;;;17.57;16.10;;;24.30;85.10;;;;;;6072379;23;20838;-45
2021/04/11 09:19:21;;;;;;;16.73;15.30;;;24.30;85.20;;;;;;6070255;23;20450;-45
2021/04/11 09:22:15;;;;;;;21.70;17.07;;;24.30;85.50;;;;;;6072280;23;20493;-45
2021/04/11 09:24:47;;;;;;;17.90;16.10;;;24.30;85.60;;;;;;6072460;23;20806;-44
2021/04/11 09:27:41;;;;;;;18.10;16.70;;;24.30;85.50;;;;;;6071438;23;20473;-45
2021/04/11 09:30:26;;;;;;;17.33;15.63;;;24.30;85.70;;;;;;6048532;23;20547;-44
2021/04/11 09:33:27;;;;;;;17.10;15.70;;;24.20;83.80;;;;;;6070306;23;20750;-45
2021/04/11 09:36:05;;;;;;;17.30;15.47;;;24.20;85.10;;;;;;6070408;23;20443;-45
2021/04/11 09:39:10;;;;;;;17.97;16.27;;;24.20;85.20;;;;;;6069883;23;20709;-44
2021/04/11 09:42:02;;;;;;;22.47;16.97;;;24.20;85.30;;;;;;6070561;23;20545;-44
2021/04/11 09:44:39;;;;;;;16.80;15.23;;;24.20;85.30;;;;;;6054486;23;20759;-45
2021/04/11 09:47:23;;;;;;;16.47;14.83;;;24.20;85.40;;;;;;6067609;23;20445;-44
2021/04/11 09:49:59;;;;;;;16.60;15.10;;;24.20;85.50;;;;;;6069992;23;20498;-45
2021/04/11 09:52:59;;;;;;;16.70;15.20;;;24.20;85.40;;;;;;6067700;23;20846;-44
2021/04/11 09:55:30;;;;;;;16.43;15.10;;;24.20;85.50;;;;;;6035303;23;20468;-44
2021/04/11 09:58:30;;;;;;;15.53;14.33;;;24.20;85.50;;;;;;6070764;23;20903;-44
2021/04/11 10:01:05;;;;;;;16.90;15.43;;;24.10;85.40;;;;;;6069277;23;20728;-44
2021/04/11 10:03:47;;;;;;;17.03;14.60;;;24.10;85.40;;;;;;6067809;23;20662;-44
2021/04/11 10:06:23;;;;;;;16.63;15.00;;;24.10;85.50;;;;;;6067956;23;20467;-44
2021/04/11 10:09:14;;;;;;;18.23;15.20;;;24.10;85.50;;;;;;6068095;23;20454;-44
2021/04/11 10:12:05;;;;;;;17.07;15.53;;;24.00;85.50;;;;;;6070629;23;20469;-44
2021/04/11 10:14:44;;;;;;;15.80;14.60;;;24.10;85.50;;;;;;6067496;23;20465;-45
2021/04/11 10:17:22;;;;;;;15.93;14.50;;;24.10;85.50;;;;;;6069346;23;20805;-44
2021/04/11 10:19:59;;;;;;;15.63;14.50;;;24.10;85.60;;;;;;6067800;23;20466;-45
2021/04/11 10:22:39;;;;;;;16.90;15.60;;;24.00;85.60;;;;;;6069085;23;20451;-44
2021/04/11 10:25:15;;;;;;;17.00;15.70;;;24.00;85.70;;;;;;6070254;23;20525;-44
2021/04/11 10:27:49;;;;;;;15.53;14.33;;;24.00;85.60;;;;;;6069030;23;20469;-45
2021/04/11 10:30:19;;;;;;;16.97;15.20;;;24.00;85.70;;;;;;6068021;23;20551;-44
2021/04/11 10:32:51;;;;;;;15.30;14.30;;;24.00;85.70;;;;;;6070442;23;21076;-44
2021/04/11 10:35:24;;;;;;;15.97;14.90;;;23.90;85.60;;;;;;6070788;23;20560;-45
2021/04/11 10:37:55;;;;;;;16.63;15.23;;;24.00;85.80;;;;;;6067226;23;20483;-44
2021/04/11 10:40:39;;;;;;;16.70;15.20;;;24.00;85.90;;;;;;6067894;23;20504;-45
2021/04/11 10:43:20;;;;;;;16.93;15.50;;;24.00;86.00;;;;;;6067257;23;20469;-44
2021/04/11 10:45:51;;;;;;;16.83;15.10;;;24.00;85.90;;;;;;6067921;23;20805;-44
2021/04/11 10:48:51;;;;;;;16.90;15.40;;;23.90;85.80;;;;;;6068476;23;20777;-44
2021/04/11 10:51:32;;;;;;;17.10;15.27;;;24.00;85.90;;;;;;6070165;23;20760;-44
2021/04/11 10:54:24;;;;;;;15.50;14.17;;;23.90;85.80;;;;;;6070319;23;20523;-44
2021/04/11 10:57:04;;;;;;;16.33;14.60;;;23.90;85.90;;;;;;6068755;23;20689;-44
2021/04/11 10:59:59;;;;;;;16.13;15.13;;;23.90;85.90;;;;;;6069277;23;20449;-44
2021/04/11 11:02:57;;;;;;;16.93;15.50;;;23.90;85.90;;;;;;6067123;23;20489;-44
2021/04/11 11:05:33;;;;;;;16.03;15.00;;;23.90;85.90;;;;;;6051671;23;20464;-44
2021/04/11 11:08:33;;;;;;;16.33;15.27;;;23.90;85.90;;;;;;6067034;23;20636;-44
2021/04/11 11:11:19;;;;;;;16.00;14.87;;;23.90;86.00;;;;;;6068109;23;20457;-44
2021/04/11 11:14:04;;;;;;;16.77;15.43;;;23.90;86.10;;;;;;6066351;23;20454;-45
2021/04/11 11:16:47;;;;;;;15.47;14.60;;;23.90;86.00;;;;;;6066214;23;20453;-44
2021/04/11 11:19:28;;;;;;;15.97;14.83;;;23.90;86.00;;;;;;6069378;23;20449;-44
2021/04/11 11:22:09;;;;;;;15.60;14.40;;;23.90;85.90;;;;;;6068497;23;20797;-44
2021/04/11 11:24:55;;;;;;;16.63;15.50;;;23.90;85.90;;;;;;6069849;23;20664;-44
2021/04/11 11:27:54;;;;;;;15.87;14.60;;;23.90;85.90;;;;;;6068256;23;20508;-45
2021/04/11 11:30:31;;;;;;;15.40;14.40;;;23.90;85.90;;;;;;6068601;23;20453;-45
2021/04/11 11:33:22;;;;;;;16.10;15.10;;;23.90;85.90;;;;;;6067645;23;20610;-44
2021/04/11 11:36:00;;;;;;;15.67;14.60;;;23.90;85.90;;;;;;6069779;23;20687;-44
2021/04/11 11:38:31;;;;;;;16.43;15.10;;;23.90;85.80;;;;;;6069229;23;20463;-44
2021/04/11 11:41:11;;;;;;;15.70;14.70;;;23.90;85.80;;;;;;6069559;23;20467;-44
2021/04/11 11:43:48;;;;;;;15.60;14.70;;;23.90;85.80;;;;;;6069586;23;20463;-44
2021/04/11 11:46:23;;;;;;;16.57;15.10;;;23.90;85.80;;;;;;6068625;23;20462;-44
2021/04/11 11:49:05;;;;;;;16.97;15.30;;;23.90;85.80;;;;;;6068069;23;21011;-45
2021/04/11 11:51:57;;;;;;;16.33;14.87;;;23.90;85.80;;;;;;6071458;23;20460;-44
2021/04/11 11:54:28;;;;;;;14.93;13.93;;;23.80;85.70;;;;;;6064855;23;20479;-43
2021/04/11 11:57:08;;;;;;;16.07;14.87;;;23.90;85.80;;;;;;6071371;23;20460;-44
2021/04/11 11:59:39;;;;;;;15.50;14.50;;;23.90;86.50;;;;;;6071377;23;20778;-45
2021/04/11 12:02:23;;;;;;;15.43;14.23;;;23.90;85.90;;;;;;6071038;23;20816;-45
2021/04/11 12:05:04;;;;;;;15.57;14.43;;;23.80;85.70;;;;;;6070069;23;21091;-44
2021/04/11 12:07:36;;;;;;;16.00;14.80;;;23.80;85.80;;;;;;6068410;23;20672;-46
2021/04/11 12:10:17;;;;;;;15.63;14.53;;;23.80;85.70;;;;;;6070802;23;20440;-45
2021/04/11 12:12:55;;;;;;;16.23;15.03;;;23.80;85.80;;;;;;6068336;23;20862;-44
2021/04/11 12:15:27;;;;;;;15.67;14.63;;;23.80;85.80;;;;;;6069182;23;20451;-44
2021/04/11 12:18:03;;;;;;;15.00;14.13;;;23.80;85.80;;;;;;6068609;23;20484;-44
2021/04/11 12:20:38;;;;;;;17.10;15.90;;;23.80;85.70;;;;;;6066176;23;20453;-44
2021/04/11 12:23:10;;;;;;;15.83;14.83;;;23.80;85.70;;;;;;6072140;23;20436;-44
2021/04/11 12:25:37;;;;;;;15.07;14.30;;;23.80;85.70;;;;;;6071909;23;20776;-44
2021/04/11 12:28:12;;;;;;;14.87;14.07;;;23.80;85.70;;;;;;6071472;23;20516;-45
2021/04/11 12:30:41;;;;;;;15.67;14.67;;;23.80;85.80;;;;;;6071204;23;20745;-44
2021/04/11 12:33:18;;;;;;;16.10;15.20;;;23.80;85.70;;;;;;6069803;23;20524;-44
2021/04/11 12:36:01;;;;;;;14.40;13.70;;;23.80;85.80;;;;;;6067418;23;20492;-43
2021/04/11 12:38:36;;;;;;;15.83;14.83;;;23.80;85.80;;;;;;6067143;23;20456;-45
2021/04/11 12:41:07;;;;;;;14.93;14.17;;;23.80;85.80;;;;;;6070208;23;20455;-44
2021/04/11 12:43:41;;;;;;;15.10;14.23;;;23.80;85.80;;;;;;6068339;23;20445;-44
2021/04/11 12:46:19;;;;;;;15.60;14.60;;;23.80;85.90;;;;;;6069332;23;20541;-44
2021/04/11 12:48:54;;;;;;;14.90;14.07;;;23.80;85.90;;;;;;6068633;23;20704;-44
2021/04/11 12:51:29;;;;;;;15.77;14.87;;;23.80;85.90;;;;;;6067778;23;20675;-44
2021/04/11 12:54:06;;;;;;;15.00;13.90;;;23.70;85.80;;;;;;6067798;23;20449;-44
2021/04/11 12:56:36;;;;;;;16.23;15.07;;;23.70;85.80;;;;;;6069689;23;20467;-44
2021/04/11 12:59:10;;;;;;;14.93;13.93;;;23.70;85.80;;;;;;6070049;23;20717;-43
2021/04/11 13:01:45;;;;;;;15.70;14.70;;;23.70;85.90;;;;;;6068990;23;20681;-45
2021/04/11 13:04:29;;;;;;;15.00;14.20;;;23.70;85.90;;;;;;6070241;23;20446;-44
2021/04/11 13:07:07;;;;;;;13.70;13.10;;;23.70;85.90;;;;;;6067616;23;20841;-44
2021/04/11 13:09:52;;;;;;;15.10;14.30;;;23.70;85.90;;;;;;6068936;23;20456;-44
2021/04/11 13:12:27;;;;;;;14.43;13.53;;;23.70;85.90;;;;;;6068285;23;20455;-44
2021/04/11 13:15:09;;;;;;;14.50;13.67;;;23.70;85.90;;;;;;6068473;23;20454;-44
2021/04/11 13:17:42;;;;;;;14.93;14.03;;;23.70;86.00;;;;;;6068888;23;20443;-44
2021/04/11 13:20:16;;;;;;;15.67;14.77;;;23.70;86.00;;;;;;6068925;23;20728;-43
2021/04/11 13:22:49;;;;;;;14.90;14.10;;;23.60;85.90;;;;;;6068454;23;20560;-44